sensor_id;sensor_type;location;lat;lon;timestamp;P1;durP1;ratioP1;P2;durP2;ratioP2
61317;SDS011;47201;40.428;-8.436;2022-11-03T00:00:05;69.93;;;17.40;;
61317;SDS011;47201;40.428;-8.436;2022-11-03T00:02:12;53.00;;;13.93;;
61317;SDS011;47201;40.428;-8.436;2022-11-03T00:04:13;38.25;;;13.40;;
61317;SDS011;47201;40.428;-8.436;2022-11-03T00:06:15;38.97;;;11.77;;
61317;SDS011;47201;40.428;-8.436;2022-11-03T00:08:16;49.90;;;15.38;;
61317;SDS011;47201;40.428;-8.436;2022-11-03T00:10:16;46.30;;;14.35;;
61317;SDS011;47201;40.428;-8.436;2022-11-03T00:12:17;35.55;;;10.20;;
61317;SDS011;47201;40.428;-8.436;2022-11-03T00:14:18;33.75;;;10.73;;
61317;SDS011;47201;40.428;-8.436;2022-11-03T00:16:19;39.65;;;11.32;;
61317;SDS011;47201;40.428;-8.436;2022-11-03T00:18:20;58.20;;;14.63;;
61317;SDS011;47201;40.428;-8.436;2022-11-03T00:20:21;96.32;;;24.00;;
61317;SDS011;47201;40.428;-8.436;2022-11-03T00:22:21;101.30;;;26.15;;
61317;SDS011;47201;40.428;-8.436;2022-11-03T00:24:22;94.10;;;24.83;;
61317;SDS011;47201;40.428;-8.436;2022-11-03T00:26:24;97.20;;;26.30;;
61317;SDS011;47201;40.428;-8.436;2022-11-03T00:28:25;67.05;;;23.00;;
61317;SDS011;47201;40.428;-8.436;2022-11-03T00:30:26;62.92;;;20.70;;
61317;SDS011;47201;40.428;-8.436;2022-11-03T00:32:27;45.90;;;16.50;;
61317;SDS011;47201;40.428;-8.436;2022-11-03T00:34:27;72.35;;;20.35;;
61317;SDS011;47201;40.428;-8.436;2022-11-03T00:36:29;68.53;;;18.95;;
61317;SDS011;47201;40.428;-8.436;2022-11-03T00:38:35;59.15;;;19.23;;
61317;SDS011;47201;40.428;-8.436;2022-11-03T00:40:36;87.07;;;24.25;;
61317;SDS011;47201;40.428;-8.436;2022-11-03T00:42:37;78.72;;;21.13;;
61317;SDS011;47201;40.428;-8.436;2022-11-03T00:44:38;67.57;;;19.35;;
61317;SDS011;47201;40.428;-8.436;2022-11-03T00:46:38;85.55;;;22.48;;
61317;SDS011;47201;40.428;-8.436;2022-11-03T00:48:39;88.45;;;25.33;;
61317;SDS011;47201;40.428;-8.436;2022-11-03T00:52:41;78.00;;;22.97;;
61317;SDS011;47201;40.428;-8.436;2022-11-03T00:54:42;65.13;;;20.67;;
61317;SDS011;47201;40.428;-8.436;2022-11-03T00:56:42;81.93;;;21.13;;
61317;SDS011;47201;40.428;-8.436;2022-11-03T00:58:43;93.20;;;24.38;;
61317;SDS011;47201;40.428;-8.436;2022-11-03T01:00:44;47.72;;;12.98;;
61317;SDS011;47201;40.428;-8.436;2022-11-03T01:02:45;23.70;;;7.95;;
61317;SDS011;47201;40.428;-8.436;2022-11-03T01:04:46;26.77;;;7.35;;
61317;SDS011;47201;40.428;-8.436;2022-11-03T01:07:05;16.77;;;7.13;;
61317;SDS011;47201;40.428;-8.436;2022-11-03T01:09:06;22.67;;;7.43;;
61317;SDS011;47201;40.428;-8.436;2022-11-03T01:11:11;20.23;;;7.45;;
61317;SDS011;47201;40.428;-8.436;2022-11-03T01:13:35;26.50;;;8.02;;
61317;SDS011;47201;40.428;-8.436;2022-11-03T01:15:38;32.25;;;8.98;;
61317;SDS011;47201;40.428;-8.436;2022-11-03T01:17:39;33.10;;;8.38;;
61317;SDS011;47201;40.428;-8.436;2022-11-03T01:19:40;26.88;;;8.18;;
61317;SDS011;47201;40.428;-8.436;2022-11-03T01:21:42;26.63;;;9.05;;
61317;SDS011;47201;40.428;-8.436;2022-11-03T01:23:43;25.52;;;7.85;;
61317;SDS011;47201;40.428;-8.436;2022-11-03T01:25:44;34.83;;;8.52;;
61317;SDS011;47201;40.428;-8.436;2022-11-03T01:27:45;23.15;;;7.82;;
61317;SDS011;47201;40.428;-8.436;2022-11-03T01:29:46;24.65;;;7.57;;
61317;SDS011;47201;40.428;-8.436;2022-11-03T01:31:46;43.85;;;9.32;;
61317;SDS011;47201;40.428;-8.436;2022-11-03T01:33:48;49.03;;;12.70;;
61317;SDS011;47201;40.428;-8.436;2022-11-03T01:35:53;103.68;;;23.45;;
61317;SDS011;47201;40.428;-8.436;2022-11-03T01:37:54;106.93;;;26.08;;
61317;SDS011;47201;40.428;-8.436;2022-11-03T01:41:56;52.43;;;13.07;;
61317;SDS011;47201;40.428;-8.436;2022-11-03T01:48:10;31.65;;;8.85;;
61317;SDS011;47201;40.428;-8.436;2022-11-03T01:50:13;43.33;;;13.13;;
61317;SDS011;47201;40.428;-8.436;2022-11-03T01:52:31;86.93;;;21.08;;
61317;SDS011;47201;40.428;-8.436;2022-11-03T01:54:37;107.85;;;23.20;;
61317;SDS011;47201;40.428;-8.436;2022-11-03T01:56:42;98.75;;;22.05;;
61317;SDS011;47201;40.428;-8.436;2022-11-03T01:58:48;76.97;;;18.80;;
61317;SDS011;47201;40.428;-8.436;2022-11-03T02:00:52;57.35;;;13.73;;
61317;SDS011;47201;40.428;-8.436;2022-11-03T02:02:55;43.55;;;9.38;;
61317;SDS011;47201;40.428;-8.436;2022-11-03T02:04:56;25.27;;;8.60;;
61317;SDS011;47201;40.428;-8.436;2022-11-03T02:09:07;21.25;;;7.07;;
61317;SDS011;47201;40.428;-8.436;2022-11-03T02:11:08;31.17;;;7.88;;
61317;SDS011;47201;40.428;-8.436;2022-11-03T02:13:27;24.67;;;7.38;;
61317;SDS011;47201;40.428;-8.436;2022-11-03T02:15:28;25.17;;;7.03;;
61317;SDS011;47201;40.428;-8.436;2022-11-03T02:17:30;20.58;;;7.00;;
61317;SDS011;47201;40.428;-8.436;2022-11-03T02:19:35;31.55;;;7.93;;
61317;SDS011;47201;40.428;-8.436;2022-11-03T02:21:54;25.90;;;7.22;;
61317;SDS011;47201;40.428;-8.436;2022-11-03T02:24:21;19.73;;;6.43;;
61317;SDS011;47201;40.428;-8.436;2022-11-03T02:26:27;21.33;;;6.70;;
61317;SDS011;47201;40.428;-8.436;2022-11-03T02:28:29;27.15;;;7.03;;
61317;SDS011;47201;40.428;-8.436;2022-11-03T02:30:42;24.40;;;6.63;;
61317;SDS011;47201;40.428;-8.436;2022-11-03T02:32:53;22.15;;;6.80;;
61317;SDS011;47201;40.428;-8.436;2022-11-03T02:37:48;21.00;;;7.20;;
61317;SDS011;47201;40.428;-8.436;2022-11-03T02:39:55;25.35;;;6.35;;
61317;SDS011;47201;40.428;-8.436;2022-11-03T02:41:59;21.67;;;6.15;;
61317;SDS011;47201;40.428;-8.436;2022-11-03T02:44:06;20.50;;;6.88;;
61317;SDS011;47201;40.428;-8.436;2022-11-03T02:46:13;28.10;;;7.13;;
61317;SDS011;47201;40.428;-8.436;2022-11-03T02:48:16;18.67;;;5.82;;
61317;SDS011;47201;40.428;-8.436;2022-11-03T02:50:18;23.48;;;5.95;;
61317;SDS011;47201;40.428;-8.436;2022-11-03T02:56:45;29.05;;;6.43;;
61317;SDS011;47201;40.428;-8.436;2022-11-03T02:59:01;19.67;;;5.38;;
61317;SDS011;47201;40.428;-8.436;2022-11-03T03:01:08;20.83;;;5.22;;
61317;SDS011;47201;40.428;-8.436;2022-11-03T03:05:25;33.15;;;7.07;;
61317;SDS011;47201;40.428;-8.436;2022-11-03T03:07:30;120.90;;;26.58;;
61317;SDS011;47201;40.428;-8.436;2022-11-03T03:09:36;101.18;;;20.95;;
61317;SDS011;47201;40.428;-8.436;2022-11-03T03:11:42;117.75;;;24.08;;
61317;SDS011;47201;40.428;-8.436;2022-11-03T03:13:47;87.82;;;16.45;;
61317;SDS011;47201;40.428;-8.436;2022-11-03T03:22:46;29.17;;;5.82;;
61317;SDS011;47201;40.428;-8.436;2022-11-03T03:24:59;24.00;;;5.50;;
61317;SDS011;47201;40.428;-8.436;2022-11-03T03:27:09;19.00;;;4.75;;
61317;SDS011;47201;40.428;-8.436;2022-11-03T03:29:17;22.88;;;5.65;;
61317;SDS011;47201;40.428;-8.436;2022-11-03T03:31:24;63.38;;;13.55;;
61317;SDS011;47201;40.428;-8.436;2022-11-03T03:33:28;74.75;;;16.85;;
61317;SDS011;47201;40.428;-8.436;2022-11-03T03:35:29;52.50;;;12.63;;
61317;SDS011;47201;40.428;-8.436;2022-11-03T03:37:36;30.33;;;6.30;;
61317;SDS011;47201;40.428;-8.436;2022-11-03T03:39:40;32.35;;;7.15;;
61317;SDS011;47201;40.428;-8.436;2022-11-03T03:41:45;27.77;;;7.53;;
61317;SDS011;47201;40.428;-8.436;2022-11-03T03:43:51;24.80;;;6.63;;
61317;SDS011;47201;40.428;-8.436;2022-11-03T03:45:55;20.42;;;5.03;;
61317;SDS011;47201;40.428;-8.436;2022-11-03T03:48:00;18.30;;;4.57;;
61317;SDS011;47201;40.428;-8.436;2022-11-03T03:50:03;14.68;;;4.90;;
61317;SDS011;47201;40.428;-8.436;2022-11-03T03:52:04;20.38;;;5.15;;
61317;SDS011;47201;40.428;-8.436;2022-11-03T03:54:05;19.42;;;5.20;;
61317;SDS011;47201;40.428;-8.436;2022-11-03T03:56:05;25.55;;;5.10;;
61317;SDS011;47201;40.428;-8.436;2022-11-03T03:58:06;21.52;;;6.28;;
61317;SDS011;47201;40.428;-8.436;2022-11-03T04:00:13;26.85;;;5.97;;
61317;SDS011;47201;40.428;-8.436;2022-11-03T04:02:15;28.63;;;5.93;;
61317;SDS011;47201;40.428;-8.436;2022-11-03T04:04:16;22.15;;;6.00;;
61317;SDS011;47201;40.428;-8.436;2022-11-03T04:06:16;19.85;;;5.88;;
61317;SDS011;47201;40.428;-8.436;2022-11-03T04:08:17;34.47;;;6.25;;
61317;SDS011;47201;40.428;-8.436;2022-11-03T04:10:20;30.50;;;6.18;;
61317;SDS011;47201;40.428;-8.436;2022-11-03T04:12:22;22.05;;;5.45;;
61317;SDS011;47201;40.428;-8.436;2022-11-03T04:14:41;18.50;;;5.35;;
61317;SDS011;47201;40.428;-8.436;2022-11-03T04:17:01;13.30;;;4.90;;
61317;SDS011;47201;40.428;-8.436;2022-11-03T04:19:20;18.63;;;5.43;;
61317;SDS011;47201;40.428;-8.436;2022-11-03T04:21:56;19.13;;;4.90;;
61317;SDS011;47201;40.428;-8.436;2022-11-03T04:24:15;15.10;;;4.93;;
61317;SDS011;47201;40.428;-8.436;2022-11-03T04:26:17;19.65;;;5.32;;
61317;SDS011;47201;40.428;-8.436;2022-11-03T04:28:23;21.85;;;4.75;;
61317;SDS011;47201;40.428;-8.436;2022-11-03T04:30:25;19.95;;;5.00;;
61317;SDS011;47201;40.428;-8.436;2022-11-03T04:32:27;18.85;;;5.80;;
61317;SDS011;47201;40.428;-8.436;2022-11-03T04:34:28;15.23;;;4.38;;
61317;SDS011;47201;40.428;-8.436;2022-11-03T04:36:29;18.20;;;4.22;;
61317;SDS011;47201;40.428;-8.436;2022-11-03T04:38:29;16.30;;;4.35;;
61317;SDS011;47201;40.428;-8.436;2022-11-03T04:40:30;17.38;;;4.85;;
61317;SDS011;47201;40.428;-8.436;2022-11-03T04:42:31;19.27;;;5.25;;
61317;SDS011;47201;40.428;-8.436;2022-11-03T04:46:35;20.98;;;4.55;;
61317;SDS011;47201;40.428;-8.436;2022-11-03T04:48:36;25.98;;;6.55;;
61317;SDS011;47201;40.428;-8.436;2022-11-03T04:50:37;36.40;;;8.10;;
61317;SDS011;47201;40.428;-8.436;2022-11-03T04:52:39;30.40;;;6.72;;
61317;SDS011;47201;40.428;-8.436;2022-11-03T04:54:40;76.22;;;13.55;;
61317;SDS011;47201;40.428;-8.436;2022-11-03T04:56:41;111.07;;;21.48;;
61317;SDS011;47201;40.428;-8.436;2022-11-03T04:58:41;13.55;;;4.32;;
61317;SDS011;47201;40.428;-8.436;2022-11-03T05:00:42;13.30;;;4.10;;
61317;SDS011;47201;40.428;-8.436;2022-11-03T05:02:47;15.82;;;4.10;;
61317;SDS011;47201;40.428;-8.436;2022-11-03T05:04:49;23.00;;;4.65;;
61317;SDS011;47201;40.428;-8.436;2022-11-03T05:06:51;40.28;;;8.15;;
61317;SDS011;47201;40.428;-8.436;2022-11-03T05:08:57;19.48;;;4.03;;
61317;SDS011;47201;40.428;-8.436;2022-11-03T05:10:59;22.67;;;4.55;;
61317;SDS011;47201;40.428;-8.436;2022-11-03T05:13:04;25.25;;;4.80;;
61317;SDS011;47201;40.428;-8.436;2022-11-03T05:15:29;24.55;;;5.45;;
61317;SDS011;47201;40.428;-8.436;2022-11-03T05:17:34;45.90;;;8.38;;
61317;SDS011;47201;40.428;-8.436;2022-11-03T05:19:37;18.10;;;4.43;;
61317;SDS011;47201;40.428;-8.436;2022-11-03T05:21:40;32.60;;;5.35;;
61317;SDS011;47201;40.428;-8.436;2022-11-03T05:23:46;22.10;;;5.25;;
61317;SDS011;47201;40.428;-8.436;2022-11-03T05:25:50;18.45;;;4.85;;
61317;SDS011;47201;40.428;-8.436;2022-11-03T05:27:52;20.20;;;5.13;;
61317;SDS011;47201;40.428;-8.436;2022-11-03T05:29:53;24.65;;;6.05;;
61317;SDS011;47201;40.428;-8.436;2022-11-03T05:31:59;23.70;;;5.93;;
61317;SDS011;47201;40.428;-8.436;2022-11-03T05:34:10;39.15;;;9.32;;
61317;SDS011;47201;40.428;-8.436;2022-11-03T05:36:17;55.38;;;13.15;;
61317;SDS011;47201;40.428;-8.436;2022-11-03T05:38:20;52.33;;;11.13;;
61317;SDS011;47201;40.428;-8.436;2022-11-03T05:40:23;96.90;;;21.98;;
61317;SDS011;47201;40.428;-8.436;2022-11-03T05:42:35;95.97;;;22.83;;
61317;SDS011;47201;40.428;-8.436;2022-11-03T05:44:38;49.97;;;12.68;;
61317;SDS011;47201;40.428;-8.436;2022-11-03T05:46:40;68.10;;;12.82;;
61317;SDS011;47201;40.428;-8.436;2022-11-03T05:48:41;117.90;;;25.00;;
61317;SDS011;47201;40.428;-8.436;2022-11-03T05:50:45;87.65;;;21.00;;
61317;SDS011;47201;40.428;-8.436;2022-11-03T05:52:46;45.17;;;12.07;;
61317;SDS011;47201;40.428;-8.436;2022-11-03T05:54:48;61.58;;;16.23;;
61317;SDS011;47201;40.428;-8.436;2022-11-03T05:56:49;61.05;;;13.43;;
61317;SDS011;47201;40.428;-8.436;2022-11-03T05:58:54;106.00;;;23.08;;
61317;SDS011;47201;40.428;-8.436;2022-11-03T06:00:56;78.65;;;21.40;;
61317;SDS011;47201;40.428;-8.436;2022-11-03T06:02:59;45.22;;;9.57;;
61317;SDS011;47201;40.428;-8.436;2022-11-03T06:05:01;49.97;;;12.77;;
61317;SDS011;47201;40.428;-8.436;2022-11-03T06:09:36;84.57;;;21.23;;
61317;SDS011;47201;40.428;-8.436;2022-11-03T06:11:36;112.03;;;25.35;;
61317;SDS011;47201;40.428;-8.436;2022-11-03T06:13:37;105.43;;;29.17;;
61317;SDS011;47201;40.428;-8.436;2022-11-03T06:17:41;128.65;;;31.60;;
61317;SDS011;47201;40.428;-8.436;2022-11-03T06:19:42;142.85;;;34.92;;
61317;SDS011;47201;40.428;-8.436;2022-11-03T06:21:50;155.55;;;35.92;;
61317;SDS011;47201;40.428;-8.436;2022-11-03T06:23:52;147.88;;;34.22;;
61317;SDS011;47201;40.428;-8.436;2022-11-03T06:27:55;122.47;;;28.30;;
61317;SDS011;47201;40.428;-8.436;2022-11-03T06:30:04;145.68;;;35.22;;
61317;SDS011;47201;40.428;-8.436;2022-11-03T06:32:27;119.07;;;29.17;;
61317;SDS011;47201;40.428;-8.436;2022-11-03T06:37:00;155.15;;;37.90;;
61317;SDS011;47201;40.428;-8.436;2022-11-03T06:39:18;161.13;;;39.55;;
61317;SDS011;47201;40.428;-8.436;2022-11-03T06:41:23;162.70;;;36.40;;
61317;SDS011;47201;40.428;-8.436;2022-11-03T06:43:30;152.80;;;36.50;;
61317;SDS011;47201;40.428;-8.436;2022-11-03T06:45:42;195.20;;;43.60;;
61317;SDS011;47201;40.428;-8.436;2022-11-03T06:47:53;190.68;;;43.83;;
61317;SDS011;47201;40.428;-8.436;2022-11-03T06:49:58;121.88;;;32.10;;
61317;SDS011;47201;40.428;-8.436;2022-11-03T06:52:33;136.68;;;32.72;;
61317;SDS011;47201;40.428;-8.436;2022-11-03T06:54:34;186.75;;;43.72;;
61317;SDS011;47201;40.428;-8.436;2022-11-03T06:56:35;150.68;;;37.88;;
61317;SDS011;47201;40.428;-8.436;2022-11-03T06:58:36;154.57;;;39.53;;
61317;SDS011;47201;40.428;-8.436;2022-11-03T07:02:51;106.38;;;28.73;;
61317;SDS011;47201;40.428;-8.436;2022-11-03T07:04:56;165.80;;;37.78;;
61317;SDS011;47201;40.428;-8.436;2022-11-03T07:06:58;165.10;;;38.67;;
61317;SDS011;47201;40.428;-8.436;2022-11-03T07:09:05;141.55;;;37.97;;
61317;SDS011;47201;40.428;-8.436;2022-11-03T07:13:19;124.10;;;37.10;;
61317;SDS011;47201;40.428;-8.436;2022-11-03T07:15:29;130.18;;;35.70;;
61317;SDS011;47201;40.428;-8.436;2022-11-03T07:17:36;103.20;;;30.50;;
61317;SDS011;47201;40.428;-8.436;2022-11-03T07:19:38;105.10;;;29.42;;
61317;SDS011;47201;40.428;-8.436;2022-11-03T07:21:43;109.82;;;33.65;;
61317;SDS011;47201;40.428;-8.436;2022-11-03T07:23:47;105.03;;;30.85;;
61317;SDS011;47201;40.428;-8.436;2022-11-03T07:25:52;145.38;;;42.65;;
61317;SDS011;47201;40.428;-8.436;2022-11-03T07:27:55;112.28;;;34.78;;
61317;SDS011;47201;40.428;-8.436;2022-11-03T07:29:57;106.78;;;34.00;;
61317;SDS011;47201;40.428;-8.436;2022-11-03T07:32:08;113.68;;;33.72;;
61317;SDS011;47201;40.428;-8.436;2022-11-03T07:34:18;89.23;;;29.43;;
61317;SDS011;47201;40.428;-8.436;2022-11-03T07:36:21;71.95;;;27.25;;
61317;SDS011;47201;40.428;-8.436;2022-11-03T07:38:25;77.80;;;25.63;;
61317;SDS011;47201;40.428;-8.436;2022-11-03T07:40:27;80.53;;;26.35;;
61317;SDS011;47201;40.428;-8.436;2022-11-03T07:42:33;84.15;;;26.98;;
61317;SDS011;47201;40.428;-8.436;2022-11-03T07:44:34;104.60;;;32.45;;
61317;SDS011;47201;40.428;-8.436;2022-11-03T07:46:35;125.10;;;31.58;;
61317;SDS011;47201;40.428;-8.436;2022-11-03T07:50:37;69.97;;;22.48;;
61317;SDS011;47201;40.428;-8.436;2022-11-03T07:52:37;103.03;;;30.20;;
61317;SDS011;47201;40.428;-8.436;2022-11-03T07:54:38;124.22;;;31.80;;
61317;SDS011;47201;40.428;-8.436;2022-11-03T07:56:46;109.40;;;32.65;;
61317;SDS011;47201;40.428;-8.436;2022-11-03T07:58:50;107.05;;;30.33;;
61317;SDS011;47201;40.428;-8.436;2022-11-03T08:00:54;90.65;;;26.88;;
61317;SDS011;47201;40.428;-8.436;2022-11-03T08:02:58;80.20;;;22.98;;
61317;SDS011;47201;40.428;-8.436;2022-11-03T08:05:00;81.80;;;25.00;;
61317;SDS011;47201;40.428;-8.436;2022-11-03T08:07:01;93.43;;;25.80;;
61317;SDS011;47201;40.428;-8.436;2022-11-03T08:09:02;87.78;;;28.30;;
61317;SDS011;47201;40.428;-8.436;2022-11-03T08:11:03;78.25;;;26.80;;
61317;SDS011;47201;40.428;-8.436;2022-11-03T08:13:04;79.32;;;24.55;;
61317;SDS011;47201;40.428;-8.436;2022-11-03T08:15:05;64.00;;;20.75;;
61317;SDS011;47201;40.428;-8.436;2022-11-03T08:17:06;70.82;;;24.63;;
61317;SDS011;47201;40.428;-8.436;2022-11-03T08:19:07;71.15;;;24.63;;
61317;SDS011;47201;40.428;-8.436;2022-11-03T08:21:08;82.55;;;25.73;;
61317;SDS011;47201;40.428;-8.436;2022-11-03T08:23:11;80.47;;;23.55;;
61317;SDS011;47201;40.428;-8.436;2022-11-03T08:25:12;60.72;;;21.20;;
61317;SDS011;47201;40.428;-8.436;2022-11-03T08:27:13;63.00;;;20.83;;
61317;SDS011;47201;40.428;-8.436;2022-11-03T08:29:14;57.72;;;19.38;;
61317;SDS011;47201;40.428;-8.436;2022-11-03T08:31:16;50.92;;;16.08;;
61317;SDS011;47201;40.428;-8.436;2022-11-03T08:33:18;61.55;;;18.95;;
61317;SDS011;47201;40.428;-8.436;2022-11-03T08:35:19;88.07;;;26.23;;
61317;SDS011;47201;40.428;-8.436;2022-11-03T08:37:19;66.97;;;21.23;;
61317;SDS011;47201;40.428;-8.436;2022-11-03T08:39:20;59.47;;;19.75;;
61317;SDS011;47201;40.428;-8.436;2022-11-03T08:41:21;61.95;;;21.08;;
61317;SDS011;47201;40.428;-8.436;2022-11-03T08:43:21;57.22;;;20.08;;
61317;SDS011;47201;40.428;-8.436;2022-11-03T08:45:22;50.35;;;21.23;;
61317;SDS011;47201;40.428;-8.436;2022-11-03T08:47:23;61.17;;;21.77;;
61317;SDS011;47201;40.428;-8.436;2022-11-03T08:49:24;68.00;;;23.98;;
61317;SDS011;47201;40.428;-8.436;2022-11-03T08:51:24;71.85;;;22.23;;
61317;SDS011;47201;40.428;-8.436;2022-11-03T08:53:25;55.35;;;21.60;;
61317;SDS011;47201;40.428;-8.436;2022-11-03T08:57:27;41.87;;;16.50;;
61317;SDS011;47201;40.428;-8.436;2022-11-03T09:01:29;25.20;;;12.77;;
61317;SDS011;47201;40.428;-8.436;2022-11-03T09:03:29;24.33;;;10.32;;
61317;SDS011;47201;40.428;-8.436;2022-11-03T09:05:30;25.90;;;11.10;;
61317;SDS011;47201;40.428;-8.436;2022-11-03T09:07:31;59.20;;;22.88;;
61317;SDS011;47201;40.428;-8.436;2022-11-03T09:09:33;48.17;;;16.92;;
61317;SDS011;47201;40.428;-8.436;2022-11-03T09:11:34;39.78;;;16.95;;
61317;SDS011;47201;40.428;-8.436;2022-11-03T09:13:34;17.38;;;10.13;;
61317;SDS011;47201;40.428;-8.436;2022-11-03T09:15:38;20.05;;;9.80;;
61317;SDS011;47201;40.428;-8.436;2022-11-03T09:17:45;26.08;;;11.50;;
61317;SDS011;47201;40.428;-8.436;2022-11-03T09:19:46;32.03;;;13.65;;
61317;SDS011;47201;40.428;-8.436;2022-11-03T09:21:46;30.02;;;13.38;;
61317;SDS011;47201;40.428;-8.436;2022-11-03T09:23:47;12.52;;;8.10;;
61317;SDS011;47201;40.428;-8.436;2022-11-03T09:25:48;22.13;;;10.77;;
61317;SDS011;47201;40.428;-8.436;2022-11-03T09:27:49;18.20;;;8.50;;
61317;SDS011;47201;40.428;-8.436;2022-11-03T09:29:50;8.68;;;6.55;;
61317;SDS011;47201;40.428;-8.436;2022-11-03T09:31:50;8.73;;;6.40;;
61317;SDS011;47201;40.428;-8.436;2022-11-03T09:33:51;13.00;;;8.10;;
61317;SDS011;47201;40.428;-8.436;2022-11-03T09:35:52;17.45;;;9.10;;
61317;SDS011;47201;40.428;-8.436;2022-11-03T09:37:53;13.77;;;8.50;;
61317;SDS011;47201;40.428;-8.436;2022-11-03T09:39:54;19.98;;;10.02;;
61317;SDS011;47201;40.428;-8.436;2022-11-03T09:41:54;21.83;;;10.45;;
61317;SDS011;47201;40.428;-8.436;2022-11-03T09:43:57;28.33;;;14.10;;
61317;SDS011;47201;40.428;-8.436;2022-11-03T09:47:59;20.93;;;12.17;;
61317;SDS011;47201;40.428;-8.436;2022-11-03T09:50:01;14.70;;;8.35;;
61317;SDS011;47201;40.428;-8.436;2022-11-03T09:52:02;16.42;;;9.10;;
61317;SDS011;47201;40.428;-8.436;2022-11-03T09:54:04;26.63;;;10.45;;
61317;SDS011;47201;40.428;-8.436;2022-11-03T09:56:05;17.08;;;8.95;;
61317;SDS011;47201;40.428;-8.436;2022-11-03T09:58:11;16.60;;;8.65;;
61317;SDS011;47201;40.428;-8.436;2022-11-03T10:00:15;11.85;;;7.20;;
61317;SDS011;47201;40.428;-8.436;2022-11-03T10:04:24;13.27;;;8.38;;
61317;SDS011;47201;40.428;-8.436;2022-11-03T10:06:27;9.38;;;7.43;;
61317;SDS011;47201;40.428;-8.436;2022-11-03T10:08:29;12.70;;;9.15;;
61317;SDS011;47201;40.428;-8.436;2022-11-03T10:10:31;11.95;;;8.27;;
61317;SDS011;47201;40.428;-8.436;2022-11-03T10:12:35;9.65;;;8.30;;
61317;SDS011;47201;40.428;-8.436;2022-11-03T10:14:37;12.32;;;9.50;;
61317;SDS011;47201;40.428;-8.436;2022-11-03T10:18:40;11.57;;;8.30;;
61317;SDS011;47201;40.428;-8.436;2022-11-03T10:20:41;13.75;;;9.70;;
61317;SDS011;47201;40.428;-8.436;2022-11-03T10:22:43;10.73;;;9.63;;
61317;SDS011;47201;40.428;-8.436;2022-11-03T10:24:46;11.25;;;9.57;;
61317;SDS011;47201;40.428;-8.436;2022-11-03T10:26:48;15.13;;;9.38;;
61317;SDS011;47201;40.428;-8.436;2022-11-03T10:31:05;21.83;;;12.10;;
61317;SDS011;47201;40.428;-8.436;2022-11-03T10:33:25;19.95;;;10.57;;
61317;SDS011;47201;40.428;-8.436;2022-11-03T10:35:36;16.55;;;10.23;;
61317;SDS011;47201;40.428;-8.436;2022-11-03T10:37:36;27.88;;;14.85;;
61317;SDS011;47201;40.428;-8.436;2022-11-03T10:39:39;36.63;;;15.20;;
61317;SDS011;47201;40.428;-8.436;2022-11-03T10:41:40;36.55;;;15.70;;
61317;SDS011;47201;40.428;-8.436;2022-11-03T10:44:02;44.78;;;21.00;;
61317;SDS011;47201;40.428;-8.436;2022-11-03T10:46:19;64.47;;;25.85;;
61317;SDS011;47201;40.428;-8.436;2022-11-03T10:48:24;50.22;;;21.02;;
61317;SDS011;47201;40.428;-8.436;2022-11-03T10:50:26;42.90;;;18.58;;
61317;SDS011;47201;40.428;-8.436;2022-11-03T10:52:27;39.47;;;18.15;;
61317;SDS011;47201;40.428;-8.436;2022-11-03T10:54:29;36.42;;;15.57;;
61317;SDS011;47201;40.428;-8.436;2022-11-03T10:56:30;19.15;;;11.05;;
61317;SDS011;47201;40.428;-8.436;2022-11-03T10:58:32;24.38;;;11.73;;
61317;SDS011;47201;40.428;-8.436;2022-11-03T11:00:33;13.88;;;8.55;;
61317;SDS011;47201;40.428;-8.436;2022-11-03T11:02:34;15.25;;;10.13;;
61317;SDS011;47201;40.428;-8.436;2022-11-03T11:04:35;42.80;;;18.45;;
61317;SDS011;47201;40.428;-8.436;2022-11-03T11:06:36;21.88;;;12.02;;
61317;SDS011;47201;40.428;-8.436;2022-11-03T11:08:39;14.65;;;9.50;;
61317;SDS011;47201;40.428;-8.436;2022-11-03T11:10:43;17.83;;;10.80;;
61317;SDS011;47201;40.428;-8.436;2022-11-03T11:13:05;24.52;;;12.80;;
61317;SDS011;47201;40.428;-8.436;2022-11-03T11:15:33;23.30;;;12.38;;
61317;SDS011;47201;40.428;-8.436;2022-11-03T11:17:47;36.28;;;15.25;;
61317;SDS011;47201;40.428;-8.436;2022-11-03T11:22:23;11.73;;;7.68;;
61317;SDS011;47201;40.428;-8.436;2022-11-03T11:26:43;11.70;;;6.72;;
61317;SDS011;47201;40.428;-8.436;2022-11-03T11:33:23;7.03;;;6.28;;
61317;SDS011;47201;40.428;-8.436;2022-11-03T11:46:39;5.40;;;5.00;;
61317;SDS011;47201;40.428;-8.436;2022-11-03T11:48:41;4.43;;;4.20;;
61317;SDS011;47201;40.428;-8.436;2022-11-03T11:50:42;6.00;;;4.90;;
61317;SDS011;47201;40.428;-8.436;2022-11-03T11:52:59;5.68;;;4.85;;
61317;SDS011;47201;40.428;-8.436;2022-11-03T11:57:24;3.70;;;3.50;;
61317;SDS011;47201;40.428;-8.436;2022-11-03T11:59:25;4.97;;;3.13;;
61317;SDS011;47201;40.428;-8.436;2022-11-03T12:01:30;4.93;;;3.28;;
61317;SDS011;47201;40.428;-8.436;2022-11-03T12:03:36;3.30;;;3.10;;
61317;SDS011;47201;40.428;-8.436;2022-11-03T12:05:40;5.20;;;3.50;;
61317;SDS011;47201;40.428;-8.436;2022-11-03T12:07:49;3.60;;;3.40;;
61317;SDS011;47201;40.428;-8.436;2022-11-03T12:09:50;7.65;;;3.75;;
61317;SDS011;47201;40.428;-8.436;2022-11-03T12:12:10;3.80;;;3.30;;
61317;SDS011;47201;40.428;-8.436;2022-11-03T12:16:40;3.80;;;3.40;;
61317;SDS011;47201;40.428;-8.436;2022-11-03T12:18:41;2.97;;;2.78;;
61317;SDS011;47201;40.428;-8.436;2022-11-03T12:20:44;2.70;;;2.60;;
61317;SDS011;47201;40.428;-8.436;2022-11-03T12:22:46;3.40;;;3.10;;
61317;SDS011;47201;40.428;-8.436;2022-11-03T12:24:48;3.50;;;3.20;;
61317;SDS011;47201;40.428;-8.436;2022-11-03T12:26:52;3.00;;;2.80;;
61317;SDS011;47201;40.428;-8.436;2022-11-03T12:28:54;3.60;;;3.38;;
61317;SDS011;47201;40.428;-8.436;2022-11-03T12:30:55;3.20;;;3.00;;
61317;SDS011;47201;40.428;-8.436;2022-11-03T12:32:56;2.80;;;2.70;;
61317;SDS011;47201;40.428;-8.436;2022-11-03T12:34:57;3.03;;;2.92;;
61317;SDS011;47201;40.428;-8.436;2022-11-03T12:36:58;3.13;;;2.92;;
61317;SDS011;47201;40.428;-8.436;2022-11-03T12:38:59;3.05;;;2.88;;
61317;SDS011;47201;40.428;-8.436;2022-11-03T12:41:00;2.20;;;2.10;;
61317;SDS011;47201;40.428;-8.436;2022-11-03T12:43:20;1.60;;;1.50;;
61317;SDS011;47201;40.428;-8.436;2022-11-03T12:45:24;2.33;;;1.63;;
61317;SDS011;47201;40.428;-8.436;2022-11-03T12:47:25;1.77;;;1.70;;
61317;SDS011;47201;40.428;-8.436;2022-11-03T12:49:26;1.77;;;1.67;;
61317;SDS011;47201;40.428;-8.436;2022-11-03T12:51:27;1.20;;;1.20;;
61317;SDS011;47201;40.428;-8.436;2022-11-03T12:53:27;1.02;;;1.02;;
61317;SDS011;47201;40.428;-8.436;2022-11-03T12:55:28;1.00;;;0.98;;
61317;SDS011;47201;40.428;-8.436;2022-11-03T12:57:29;0.95;;;0.95;;
61317;SDS011;47201;40.428;-8.436;2022-11-03T12:59:30;0.82;;;0.82;;
61317;SDS011;47201;40.428;-8.436;2022-11-03T13:01:32;0.90;;;0.90;;
61317;SDS011;47201;40.428;-8.436;2022-11-03T13:03:33;1.05;;;1.05;;
61317;SDS011;47201;40.428;-8.436;2022-11-03T13:05:35;1.10;;;1.00;;
61317;SDS011;47201;40.428;-8.436;2022-11-03T13:07:36;1.00;;;1.00;;
61317;SDS011;47201;40.428;-8.436;2022-11-03T13:09:36;1.70;;;1.13;;
61317;SDS011;47201;40.428;-8.436;2022-11-03T13:11:38;0.90;;;0.90;;
61317;SDS011;47201;40.428;-8.436;2022-11-03T13:13:57;1.63;;;1.05;;
61317;SDS011;47201;40.428;-8.436;2022-11-03T13:16:02;1.42;;;0.90;;
61317;SDS011;47201;40.428;-8.436;2022-11-03T13:18:05;0.63;;;0.63;;
61317;SDS011;47201;40.428;-8.436;2022-11-03T13:20:06;0.68;;;0.68;;
61317;SDS011;47201;40.428;-8.436;2022-11-03T13:22:07;1.52;;;0.85;;